sensor_id;sensor_type;location;lat;lon;timestamp;pressure;altitude;pressure_sealevel;temperature;humidity
13968;BME280;39536;52.198;9.920;2024-03-08T00:01:53;101332.06;;;2.88;100.00
13968;BME280;39536;52.198;9.920;2024-03-08T00:04:20;101337.09;;;2.77;100.00
13968;BME280;39536;52.198;9.920;2024-03-08T00:06:46;101339.69;;;2.77;100.00
13968;BME280;39536;52.198;9.920;2024-03-08T00:09:14;101337.97;;;2.80;100.00
13968;BME280;39536;52.198;9.920;2024-03-08T00:11:41;101334.53;;;2.77;100.00
13968;BME280;39536;52.198;9.920;2024-03-08T00:14:07;101335.41;;;2.80;100.00
13968;BME280;39536;52.198;9.920;2024-03-08T00:16:34;101345.75;;;2.84;100.00
13968;BME280;39536;52.198;9.920;2024-03-08T00:19:01;101338.09;;;2.89;100.00
13968;BME280;39536;52.198;9.920;2024-03-08T00:21:27;101340.66;;;2.87;100.00
13968;BME280;39536;52.198;9.920;2024-03-08T00:23:54;101332.03;;;2.84;100.00
13968;BME280;39536;52.198;9.920;2024-03-08T00:26:22;101334.50;;;2.74;100.00
13968;BME280;39536;52.198;9.920;2024-03-08T00:28:49;101338.75;;;2.72;100.00
13968;BME280;39536;52.198;9.920;2024-03-08T00:31:15;101332.00;;;2.82;100.00
13968;BME280;39536;52.198;9.920;2024-03-08T00:33:42;101328.47;;;2.72;100.00
13968;BME280;39536;52.198;9.920;2024-03-08T00:36:08;101324.16;;;2.71;100.00
13968;BME280;39536;52.198;9.920;2024-03-08T00:38:35;101326.66;;;2.67;100.00
13968;BME280;39536;52.198;9.920;2024-03-08T00:41:02;101322.34;;;2.63;100.00
13968;BME280;39536;52.198;9.920;2024-03-08T00:43:29;101326.69;;;2.68;100.00
13968;BME280;39536;52.198;9.920;2024-03-08T00:45:56;101323.28;;;2.71;100.00
13968;BME280;39536;52.198;9.920;2024-03-08T00:48:23;101320.66;;;2.68;100.00
13968;BME280;39536;52.198;9.920;2024-03-08T00:50:49;101313.91;;;2.76;100.00
13968;BME280;39536;52.198;9.920;2024-03-08T00:53:16;101308.03;;;2.86;100.00
13968;BME280;39536;52.198;9.920;2024-03-08T00:55:43;101313.09;;;2.78;100.00
13968;BME280;39536;52.198;9.920;2024-03-08T00:58:11;101300.19;;;2.75;100.00
13968;BME280;39536;52.198;9.920;2024-03-08T01:00:39;101309.56;;;2.69;100.00
13968;BME280;39536;52.198;9.920;2024-03-08T01:03:05;101297.59;;;2.74;100.00
13968;BME280;39536;52.198;9.920;2024-03-08T01:05:32;101302.69;;;2.69;100.00
13968;BME280;39536;52.198;9.920;2024-03-08T01:08:00;101289.81;;;2.66;100.00
13968;BME280;39536;52.198;9.920;2024-03-08T01:10:28;101289.06;;;2.75;100.00
13968;BME280;39536;52.198;9.920;2024-03-08T01:12:54;101295.03;;;2.74;100.00
13968;BME280;39536;52.198;9.920;2024-03-08T01:15:22;101289.16;;;2.86;100.00
13968;BME280;39536;52.198;9.920;2024-03-08T01:17:50;101282.34;;;2.89;100.00
13968;BME280;39536;52.198;9.920;2024-03-08T01:20:16;101277.19;;;2.89;100.00
13968;BME280;39536;52.198;9.920;2024-03-08T01:22:43;101270.38;;;2.94;100.00
13968;BME280;39536;52.198;9.920;2024-03-08T01:25:09;101266.97;;;2.94;100.00
13968;BME280;39536;52.198;9.920;2024-03-08T01:27:36;101271.84;;;2.71;100.00
13968;BME280;39536;52.198;9.920;2024-03-08T01:30:03;101270.03;;;2.62;100.00
13968;BME280;39536;52.198;9.920;2024-03-08T01:32:30;101262.31;;;2.62;100.00
13968;BME280;39536;52.198;9.920;2024-03-08T01:34:58;101261.47;;;2.65;100.00
13968;BME280;39536;52.198;9.920;2024-03-08T01:37:24;101264.03;;;2.63;100.00
13968;BME280;39536;52.198;9.920;2024-03-08T01:39:51;101262.28;;;2.59;100.00
13968;BME280;39536;52.198;9.920;2024-03-08T01:42:18;101257.00;;;2.47;100.00
13968;BME280;39536;52.198;9.920;2024-03-08T01:44:45;101250.81;;;2.33;100.00
13968;BME280;39536;52.198;9.920;2024-03-08T01:47:11;101249.22;;;2.42;100.00
13968;BME280;39536;52.198;9.920;2024-03-08T01:49:38;101245.66;;;2.31;100.00
13968;BME280;39536;52.198;9.920;2024-03-08T01:52:06;101238.00;;;2.34;100.00
13968;BME280;39536;52.198;9.920;2024-03-08T01:54:34;101240.59;;;2.37;100.00
13968;BME280;39536;52.198;9.920;2024-03-08T01:57:02;101235.47;;;2.39;100.00
13968;BME280;39536;52.198;9.920;2024-03-08T01:59:28;101246.56;;;2.35;100.00
13968;BME280;39536;52.198;9.920;2024-03-08T02:01:55;101244.84;;;2.35;100.00
13968;BME280;39536;52.198;9.920;2024-03-08T02:04:24;101237.19;;;2.40;100.00
13968;BME280;39536;52.198;9.920;2024-03-08T02:06:51;101235.47;;;2.37;100.00
13968;BME280;39536;52.198;9.920;2024-03-08T02:09:19;101230.25;;;2.31;100.00
13968;BME280;39536;52.198;9.920;2024-03-08T02:11:46;101226.00;;;2.35;100.00
13968;BME280;39536;52.198;9.920;2024-03-08T02:14:12;101222.47;;;2.25;100.00
13968;BME280;39536;52.198;9.920;2024-03-08T02:16:39;101213.91;;;2.26;100.00
13968;BME280;39536;52.198;9.920;2024-03-08T02:19:06;101212.09;;;2.20;100.00
13968;BME280;39536;52.198;9.920;2024-03-08T02:21:36;101207.03;;;2.25;100.00
13968;BME280;39536;52.198;9.920;2024-03-08T02:24:03;101215.59;;;2.25;100.00
13968;BME280;39536;52.198;9.920;2024-03-08T02:26:30;101205.19;;;2.15;100.00
13968;BME280;39536;52.198;9.920;2024-03-08T02:28:57;101205.22;;;2.16;100.00
13968;BME280;39536;52.198;9.920;2024-03-08T02:31:23;101206.06;;;2.15;100.00
13968;BME280;39536;52.198;9.920;2024-03-08T02:33:50;101205.25;;;2.19;100.00
13968;BME280;39536;52.198;9.920;2024-03-08T02:36:16;101193.22;;;2.15;100.00
13968;BME280;39536;52.198;9.920;2024-03-08T02:39:06;101200.94;;;2.17;100.00
13968;BME280;39536;52.198;9.920;2024-03-08T02:41:33;101194.19;;;2.25;100.00
13968;BME280;39536;52.198;9.920;2024-03-08T02:43:59;101197.63;;;2.27;100.00
13968;BME280;39536;52.198;9.920;2024-03-08T02:46:26;101203.72;;;2.35;100.00
13968;BME280;39536;52.198;9.920;2024-03-08T02:48:52;101195.16;;;2.36;100.00
13968;BME280;39536;52.198;9.920;2024-03-08T02:51:19;101190.09;;;2.41;100.00
13968;BME280;39536;52.198;9.920;2024-03-08T02:53:45;101184.97;;;2.44;100.00
13968;BME280;39536;52.198;9.920;2024-03-08T02:56:15;101188.31;;;2.37;100.00
13968;BME280;39536;52.198;9.920;2024-03-08T02:58:42;101179.69;;;2.31;100.00
13968;BME280;39536;52.198;9.920;2024-03-08T03:01:13;101177.88;;;2.23;100.00
13968;BME280;39536;52.198;9.920;2024-03-08T03:03:40;101180.34;;;2.14;100.00
13968;BME280;39536;52.198;9.920;2024-03-08T03:06:07;101175.88;;;2.00;100.00
13968;BME280;39536;52.198;9.920;2024-03-08T03:08:33;101171.50;;;1.92;100.00
13968;BME280;39536;52.198;9.920;2024-03-08T03:11:00;101166.19;;;1.78;100.00
13968;BME280;39536;52.198;9.920;2024-03-08T03:13:28;101167.13;;;1.84;100.00
13968;BME280;39536;52.198;9.920;2024-03-08T03:15:55;101163.00;;;1.97;100.00
13968;BME280;39536;52.198;9.920;2024-03-08T03:18:23;101158.69;;;1.95;100.00
13968;BME280;39536;52.198;9.920;2024-03-08T03:20:51;101157.88;;;1.97;100.00
13968;BME280;39536;52.198;9.920;2024-03-08T03:23:17;101149.34;;;2.01;100.00
13968;BME280;39536;52.198;9.920;2024-03-08T03:25:45;101151.09;;;2.04;100.00
13968;BME280;39536;52.198;9.920;2024-03-08T03:28:12;101154.59;;;2.11;100.00
13968;BME280;39536;52.198;9.920;2024-03-08T03:30:41;101151.16;;;2.12;100.00
13968;BME280;39536;52.198;9.920;2024-03-08T03:33:07;101149.41;;;2.07;100.00
13968;BME280;39536;52.198;9.920;2024-03-08T03:35:35;101153.66;;;2.04;100.00
13968;BME280;39536;52.198;9.920;2024-03-08T03:38:02;101154.44;;;1.98;100.00
13968;BME280;39536;52.198;9.920;2024-03-08T03:40:32;101157.78;;;1.93;100.00
13968;BME280;39536;52.198;9.920;2024-03-08T03:42:58;101159.50;;;1.92;100.00
13968;BME280;39536;52.198;9.920;2024-03-08T03:45:25;101159.44;;;1.86;100.00
13968;BME280;39536;52.198;9.920;2024-03-08T03:47:53;101142.22;;;1.80;100.00
13968;BME280;39536;52.198;9.920;2024-03-08T03:50:20;101150.66;;;1.69;100.00
13968;BME280;39536;52.198;9.920;2024-03-08T03:52:47;101148.09;;;1.70;100.00
13968;BME280;39536;52.198;9.920;2024-03-08T03:55:14;101140.34;;;1.66;100.00
13968;BME280;39536;52.198;9.920;2024-03-08T03:57:40;101144.63;;;1.67;100.00
13968;BME280;39536;52.198;9.920;2024-03-08T04:00:08;101144.53;;;1.59;100.00
13968;BME280;39536;52.198;9.920;2024-03-08T04:02:36;101138.41;;;1.52;100.00
13968;BME280;39536;52.198;9.920;2024-03-08T04:05:06;101141.88;;;1.54;100.00
13968;BME280;39536;52.198;9.920;2024-03-08T04:07:33;101148.81;;;1.60;100.00
13968;BME280;39536;52.198;9.920;2024-03-08T04:10:00;101147.19;;;1.68;100.00
13968;BME280;39536;52.198;9.920;2024-03-08T04:12:26;101152.31;;;1.67;100.00
13968;BME280;39536;52.198;9.920;2024-03-08T04:14:54;101144.78;;;1.79;100.00
13968;BME280;39536;52.198;9.920;2024-03-08T04:17:20;101150.75;;;1.75;100.00
13968;BME280;39536;52.198;9.920;2024-03-08T04:19:47;101153.34;;;1.78;100.00
13968;BME280;39536;52.198;9.920;2024-03-08T04:22:15;101148.28;;;1.84;100.00
13968;BME280;39536;52.198;9.920;2024-03-08T04:24:43;101143.22;;;1.92;100.00
13968;BME280;39536;52.198;9.920;2024-03-08T04:27:09;101142.38;;;1.91;100.00
13968;BME280;39536;52.198;9.920;2024-03-08T04:29:36;101151.59;;;1.77;100.00
13968;BME280;39536;52.198;9.920;2024-03-08T04:32:03;101136.09;;;1.69;100.00
13968;BME280;39536;52.198;9.920;2024-03-08T04:34:30;101136.00;;;1.63;100.00
13968;BME280;39536;52.198;9.920;2024-03-08T04:36:57;101132.47;;;1.55;100.00
13968;BME280;39536;52.198;9.920;2024-03-08T04:39:24;101124.75;;;1.53;100.00
13968;BME280;39536;52.198;9.920;2024-03-08T04:41:53;101125.53;;;1.49;100.00
13968;BME280;39536;52.198;9.920;2024-03-08T04:44:21;101118.47;;;1.31;100.00
13968;BME280;39536;52.198;9.920;2024-03-08T04:46:49;101120.19;;;1.34;100.00
13968;BME280;39536;52.198;9.920;2024-03-08T04:49:16;101131.22;;;1.27;100.00
13968;BME280;39536;52.198;9.920;2024-03-08T04:51:42;101126.88;;;1.23;100.00
13968;BME280;39536;52.198;9.920;2024-03-08T04:54:10;101133.72;;;1.24;100.00
13968;BME280;39536;52.198;9.920;2024-03-08T04:56:38;101120.94;;;1.25;100.00
13968;BME280;39536;52.198;9.920;2024-03-08T04:59:05;101129.56;;;1.30;100.00
13968;BME280;39536;52.198;9.920;2024-03-08T05:01:33;101120.19;;;1.34;100.00
13968;BME280;39536;52.198;9.920;2024-03-08T05:04:01;101129.69;;;1.38;100.00
13968;BME280;39536;52.198;9.920;2024-03-08T05:06:28;101123.59;;;1.33;100.00
13968;BME280;39536;52.198;9.920;2024-03-08T05:08:55;101122.69;;;1.28;100.00
13968;BME280;39536;52.198;9.920;2024-03-08T05:11:22;101115.88;;;1.30;100.00
13968;BME280;39536;52.198;9.920;2024-03-08T05:13:50;101122.56;;;1.19;100.00
13968;BME280;39536;52.198;9.920;2024-03-08T05:16:16;101118.09;;;1.08;100.00
13968;BME280;39536;52.198;9.920;2024-03-08T05:18:43;101120.63;;;1.05;100.00
13968;BME280;39536;52.198;9.920;2024-03-08T05:21:12;101126.66;;;1.09;100.00
13968;BME280;39536;52.198;9.920;2024-03-08T05:23:38;101123.22;;;1.08;100.00
13968;BME280;39536;52.198;9.920;2024-03-08T05:26:05;101125.03;;;1.12;100.00
13968;BME280;39536;52.198;9.920;2024-03-08T05:28:31;101119.94;;;1.17;100.00
13968;BME280;39536;52.198;9.920;2024-03-08T05:30:59;101120.75;;;1.13;100.00
13968;BME280;39536;52.198;9.920;2024-03-08T05:33:26;101120.72;;;1.11;100.00
13968;BME280;39536;52.198;9.920;2024-03-08T05:35:53;101118.19;;;1.13;100.00
13968;BME280;39536;52.198;9.920;2024-03-08T05:38:19;101118.13;;;1.10;100.00
13968;BME280;39536;52.198;9.920;2024-03-08T05:40:46;101117.19;;;1.03;100.00
13968;BME280;39536;52.198;9.920;2024-03-08T05:43:13;101110.22;;;0.96;100.00
13968;BME280;39536;52.198;9.920;2024-03-08T05:45:42;101117.09;;;0.99;100.00
13968;BME280;39536;52.198;9.920;2024-03-08T05:48:10;101113.69;;;0.98;100.00
13968;BME280;39536;52.198;9.920;2024-03-08T05:50:37;101117.13;;;1.00;100.00
13968;BME280;39536;52.198;9.920;2024-03-08T05:53:04;101118.72;;;0.92;100.00
13968;BME280;39536;52.198;9.920;2024-03-08T05:55:31;101115.28;;;0.93;100.00
13968;BME280;39536;52.198;9.920;2024-03-08T05:58:00;101113.72;;;1.01;100.00
13968;BME280;39536;52.198;9.920;2024-03-08T06:00:27;101120.53;;;0.99;100.00
13968;BME280;39536;52.198;9.920;2024-03-08T06:02:54;101119.72;;;1.02;100.00
13968;BME280;39536;52.198;9.920;2024-03-08T06:05:22;101121.63;;;1.13;100.00
13968;BME280;39536;52.198;9.920;2024-03-08T06:07:50;101118.91;;;1.04;100.00
13968;BME280;39536;52.198;9.920;2024-03-08T06:10:19;101120.72;;;1.11;100.00
13968;BME280;39536;52.198;9.920;2024-03-08T06:12:45;101114.63;;;1.05;100.00
13968;BME280;39536;52.198;9.920;2024-03-08T06:15:12;101115.44;;;1.02;100.00
13968;BME280;39536;52.198;9.920;2024-03-08T06:17:40;101111.25;;;1.09;100.00
13968;BME280;39536;52.198;9.920;2024-03-08T06:20:07;101120.63;;;1.04;100.00
13968;BME280;39536;52.198;9.920;2024-03-08T06:22:40;101116.28;;;1.01;100.00
13968;BME280;39536;52.198;9.920;2024-03-08T06:25:07;101117.19;;;1.03;100.00
13968;BME280;39536;52.198;9.920;2024-03-08T06:27:35;101104.22;;;0.96;100.00
13968;BME280;39536;52.198;9.920;2024-03-08T06:30:02;101105.97;;;0.97;100.00
13968;BME280;39536;52.198;9.920;2024-03-08T06:32:30;101111.09;;;0.98;100.00
13968;BME280;39536;52.198;9.920;2024-03-08T06:34:59;101099.81;;;0.87;100.00
13968;BME280;39536;52.198;9.920;2024-03-08T06:37:26;101099.72;;;0.81;100.00
13968;BME280;39536;52.198;9.920;2024-03-08T06:39:54;101096.38;;;0.85;100.00
13968;BME280;39536;52.198;9.920;2024-03-08T06:42:21;101094.81;;;0.95;100.00
13968;BME280;39536;52.198;9.920;2024-03-08T06:44:47;101094.97;;;1.04;100.00
13968;BME280;39536;52.198;9.920;2024-03-08T06:47:15;101101.03;;;1.12;100.00
13968;BME280;39536;52.198;9.920;2024-03-08T06:49:42;101092.72;;;1.25;100.00
13968;BME280;39536;52.198;9.920;2024-03-08T06:52:08;101098.78;;;1.32;100.00
13968;BME280;39536;52.198;9.920;2024-03-08T06:54:35;101104.00;;;1.38;100.00
13968;BME280;39536;52.198;9.920;2024-03-08T06:57:04;101097.34;;;1.52;100.00
13968;BME280;39536;52.198;9.920;2024-03-08T06:59:30;101097.53;;;1.66;100.00
13968;BME280;39536;52.198;9.920;2024-03-08T07:01:57;101092.41;;;1.66;100.00
13968;BME280;39536;52.198;9.920;2024-03-08T07:04:24;101095.84;;;1.68;100.00
13968;BME280;39536;52.198;9.920;2024-03-08T07:06:54;101092.63;;;1.84;100.00
13968;BME280;39536;52.198;9.920;2024-03-08T07:09:20;101096.91;;;1.84;100.00
13968;BME280;39536;52.198;9.920;2024-03-08T07:11:47;101096.84;;;1.79;100.00
13968;BME280;39536;52.198;9.920;2024-03-08T07:14:21;101091.72;;;1.79;100.00
13968;BME280;39536;52.198;9.920;2024-03-08T07:16:48;101095.91;;;1.74;100.00
13968;BME280;39536;52.198;9.920;2024-03-08T07:19:15;101099.53;;;1.87;100.00
13968;BME280;39536;52.198;9.920;2024-03-08T07:21:42;101094.44;;;1.90;100.00
13968;BME280;39536;52.198;9.920;2024-03-08T07:24:09;101096.28;;;2.05;100.00
13968;BME280;39536;52.198;9.920;2024-03-08T07:26:53;101099.75;;;2.08;100.00
13968;BME280;39536;52.198;9.920;2024-03-08T07:29:22;101084.28;;;2.04;100.00
13968;BME280;39536;52.198;9.920;2024-03-08T07:31:48;101088.72;;;2.16;100.00
13968;BME280;39536;52.198;9.920;2024-03-08T07:34:26;101085.31;;;2.20;100.00
13968;BME280;39536;52.198;9.920;2024-03-08T07:36:52;101088.69;;;2.14;100.00
13968;BME280;39536;52.198;9.920;2024-03-08T07:39:21;101093.03;;;2.20;100.00
13968;BME280;39536;52.198;9.920;2024-03-08T07:41:49;101081.19;;;2.36;100.00
13968;BME280;39536;52.198;9.920;2024-03-08T07:44:17;101081.28;;;2.43;100.00
13968;BME280;39536;52.198;9.920;2024-03-08T07:46:45;101085.66;;;2.53;100.00
13968;BME280;39536;52.198;9.920;2024-03-08T07:49:12;101082.25;;;2.58;100.00
13968;BME280;39536;52.198;9.920;2024-03-08T07:51:40;101077.19;;;2.67;100.00
13968;BME280;39536;52.198;9.920;2024-03-08T07:54:07;101079.03;;;2.82;100.00
13968;BME280;39536;52.198;9.920;2024-03-08T07:56:34;101079.94;;;2.88;100.00
13968;BME280;39536;52.198;9.920;2024-03-08T07:59:01;101078.16;;;2.80;100.00
13968;BME280;39536;52.198;9.920;2024-03-08T08:01:29;101079.13;;;2.98;100.00
13968;BME280;39536;52.198;9.920;2024-03-08T08:03:57;101073.16;;;2.99;100.00
13968;BME280;39536;52.198;9.920;2024-03-08T08:06:23;101071.44;;;2.97;100.00
13968;BME280;39536;52.198;9.920;2024-03-08T08:08:50;101069.75;;;3.04;100.00
13968;BME280;39536;52.198;9.920;2024-03-08T08:11:17;101072.31;;;3.05;100.00
13968;BME280;39536;52.198;9.920;2024-03-08T08:13:44;101069.91;;;3.25;100.00
13968;BME280;39536;52.198;9.920;2024-03-08T08:16:10;101060.50;;;3.36;100.00
13968;BME280;39536;52.198;9.920;2024-03-08T08:18:38;101059.72;;;3.51;100.00
13968;BME280;39536;52.198;9.920;2024-03-08T08:21:06;101055.47;;;3.59;100.00
13968;BME280;39536;52.198;9.920;2024-03-08T08:23:32;101051.19;;;3.64;100.00
13968;BME280;39536;52.198;9.920;2024-03-08T08:25:59;101046.09;;;3.80;100.00
13968;BME280;39536;52.198;9.920;2024-03-08T08:28:28;101054.72;;;3.80;100.00
13968;BME280;39536;52.198;9.920;2024-03-08T08:30:56;101051.31;;;3.90;100.00
13968;BME280;39536;52.198;9.920;2024-03-08T08:33:22;101053.00;;;3.91;100.00
13968;BME280;39536;52.198;9.920;2024-03-08T08:35:50;101049.59;;;4.05;100.00
13968;BME280;39536;52.198;9.920;2024-03-08T08:38:20;101048.75;;;4.04;100.00
13968;BME280;39536;52.198;9.920;2024-03-08T08:40:47;101043.63;;;4.23;100.00
13968;BME280;39536;52.198;9.920;2024-03-08T08:43:13;101044.53;;;4.40;100.00
13968;BME280;39536;52.198;9.920;2024-03-08T08:45:40;101046.22;;;4.44;100.00
13968;BME280;39536;52.198;9.920;2024-03-08T08:48:08;101035.06;;;4.47;100.00
13968;BME280;39536;52.198;9.920;2024-03-08T08:50:35;101036.78;;;4.57;100.00
13968;BME280;39536;52.198;9.920;2024-03-08T08:53:03;101034.22;;;4.65;100.00
13968;BME280;39536;52.198;9.920;2024-03-08T08:55:33;101020.44;;;4.64;100.00
13968;BME280;39536;52.198;9.920;2024-03-08T08:58:01;101027.31;;;4.76;100.00
13968;BME280;39536;52.198;9.920;2024-03-08T09:00:28;101022.16;;;4.90;100.00
13968;BME280;39536;52.198;9.920;2024-03-08T09:02:56;101024.72;;;4.96;100.00
13968;BME280;39536;52.198;9.920;2024-03-08T09:05:26;101011.81;;;4.93;100.00
13968;BME280;39536;52.198;9.920;2024-03-08T09:07:53;101012.63;;;5.15;100.00
13968;BME280;39536;52.198;9.920;2024-03-08T09:10:20;101004.00;;;5.20;100.00
13968;BME280;39536;52.198;9.920;2024-03-08T09:12:48;101013.47;;;5.24;100.00
13968;BME280;39536;52.198;9.920;2024-03-08T09:15:15;101003.06;;;5.40;100.00
13968;BME280;39536;52.198;9.920;2024-03-08T09:17:43;101010.81;;;5.35;100.00
13968;BME280;39536;52.198;9.920;2024-03-08T09:20:10;101006.50;;;5.46;100.00
13968;BME280;39536;52.198;9.920;2024-03-08T09:22:46;101008.22;;;5.44;100.00
13968;BME280;39536;52.198;9.920;2024-03-08T09:25:12;100994.34;;;5.65;100.00
13968;BME280;39536;52.198;9.920;2024-03-08T09:27:42;100986.59;;;5.62;100.00
13968;BME280;39536;52.198;9.920;2024-03-08T09:30:11;100986.63;;;5.59;100.00
13968;BME280;39536;52.198;9.920;2024-03-08T09:32:38;100976.31;;;5.50;100.00
13968;BME280;39536;52.198;9.920;2024-03-08T09:35:05;100968.53;;;5.59;100.00
13968;BME280;39536;52.198;9.920;2024-03-08T09:37:32;100970.19;;;5.74;100.00
13968;BME280;39536;52.198;9.920;2024-03-08T09:40:00;100969.22;;;5.87;100.00
13968;BME280;39536;52.198;9.920;2024-03-08T09:42:29;100963.19;;;5.93;100.00
13968;BME280;39536;52.198;9.920;2024-03-08T09:44:57;100960.56;;;6.02;100.00
13968;BME280;39536;52.198;9.920;2024-03-08T09:47:25;100955.31;;;6.11;100.00
13968;BME280;39536;52.198;9.920;2024-03-08T09:49:54;100938.00;;;6.19;100.00
13968;BME280;39536;52.198;9.920;2024-03-08T09:52:21;100937.91;;;6.30;100.00
13968;BME280;39536;52.198;9.920;2024-03-08T09:54:47;100936.09;;;6.38;100.00
13968;BME280;39536;52.198;9.920;2024-03-08T09:57:15;100937.91;;;6.29;100.00
13968;BME280;39536;52.198;9.920;2024-03-08T09:59:42;100934.44;;;6.36;100.00
13968;BME280;39536;52.198;9.920;2024-03-08T10:02:14;100925.66;;;6.49;100.00
13968;BME280;39536;52.198;9.920;2024-03-08T10:04:43;100915.22;;;6.57;100.00
13968;BME280;39536;52.198;9.920;2024-03-08T10:07:11;100909.19;;;6.58;100.00
13968;BME280;39536;52.198;9.920;2024-03-08T10:09:38;100911.50;;;6.84;100.00
13968;BME280;39536;52.198;9.920;2024-03-08T10:12:05;100918.25;;;6.97;100.00
13968;BME280;39536;52.198;9.920;2024-03-08T10:14:32;100906.97;;;7.03;100.00
13968;BME280;39536;52.198;9.920;2024-03-08T10:16:59;100904.28;;;7.09;100.00
13968;BME280;39536;52.198;9.920;2024-03-08T10:19:26;100900.78;;;7.14;100.00
13968;BME280;39536;52.198;9.920;2024-03-08T10:21:54;100906.81;;;7.16;100.00
13968;BME280;39536;52.198;9.920;2024-03-08T10:24:22;100898.63;;;7.44;100.00
13968;BME280;39536;52.198;9.920;2024-03-08T10:26:52;100900.28;;;7.51;100.00
13968;BME280;39536;52.198;9.920;2024-03-08T10:29:18;100892.69;;;7.39;100.00
13968;BME280;39536;52.198;9.920;2024-03-08T10:31:45;100895.66;;;7.72;100.00
13968;BME280;39536;52.198;9.920;2024-03-08T10:34:12;100886.69;;;7.91;100.00
13968;BME280;39536;52.198;9.920;2024-03-08T10:36:39;100886.88;;;7.82;100.00
13968;BME280;39536;52.198;9.920;2024-03-08T10:39:18;100885.69;;;8.01;100.00
13968;BME280;39536;52.198;9.920;2024-03-08T10:41:52;100882.09;;;8.08;100.00
13968;BME280;39536;52.198;9.920;2024-03-08T10:44:38;100873.06;;;8.32;100.00
13968;BME280;39536;52.198;9.920;2024-03-08T10:47:15;100878.06;;;8.43;100.00
13968;BME280;39536;52.198;9.920;2024-03-08T10:49:50;100867.63;;;8.46;100.00
13968;BME280;39536;52.198;9.920;2024-03-08T10:52:19;100862.25;;;8.57;100.00
13968;BME280;39536;52.198;9.920;2024-03-08T10:54:47;100863.78;;;8.67;100.00
13968;BME280;39536;52.198;9.920;2024-03-08T10:57:17;100850.81;;;8.66;100.00
13968;BME280;39536;52.198;9.920;2024-03-08T10:59:46;100854.78;;;8.85;100.00
13968;BME280;39536;52.198;9.920;2024-03-08T11:02:16;100837.94;;;8.61;100.00
13968;BME280;39536;52.198;9.920;2024-03-08T11:04:46;100843.84;;;8.68;100.00
13968;BME280;39536;52.198;9.920;2024-03-08T11:07:13;100839.69;;;8.59;100.00
13968;BME280;39536;52.198;9.920;2024-03-08T11:09:42;100837.38;;;8.45;100.00
13968;BME280;39536;52.198;9.920;2024-03-08T11:12:23;100833.69;;;8.55;100.00
13968;BME280;39536;52.198;9.920;2024-03-08T11:14:55;100831.81;;;8.64;100.00
13968;BME280;39536;52.198;9.920;2024-03-08T11:17:26;100831.66;;;8.71;100.00
13968;BME280;39536;52.198;9.920;2024-03-08T11:19:55;100826.84;;;8.95;100.00
13968;BME280;39536;52.198;9.920;2024-03-08T11:22:23;100824.66;;;9.15;100.00
13968;BME280;39536;52.198;9.920;2024-03-08T11:24:52;100824.06;;;9.04;100.00
13968;BME280;39536;52.198;9.920;2024-03-08T11:27:19;100813.47;;;9.12;100.00
13968;BME280;39536;52.198;9.920;2024-03-08T11:30:00;100807.03;;;9.30;100.00
13968;BME280;39536;52.198;9.920;2024-03-08T11:32:37;100806.03;;;9.35;100.00
13968;BME280;39536;52.198;9.920;2024-03-08T11:35:08;100799.09;;;9.34;100.00
13968;BME280;39536;52.198;9.920;2024-03-08T11:37:48;100791.22;;;9.37;100.00
13968;BME280;39536;52.198;9.920;2024-03-08T11:40:16;100789.59;;;9.35;100.00
13968;BME280;39536;52.198;9.920;2024-03-08T11:42:45;100775.78;;;9.31;100.00
13968;BME280;39536;52.198;9.920;2024-03-08T11:45:15;100770.69;;;9.27;100.00
13968;BME280;39536;52.198;9.920;2024-03-08T11:47:45;100768.50;;;9.45;100.00
13968;BME280;39536;52.198;9.920;2024-03-08T11:50:12;100772.72;;;9.51;100.00
13968;BME280;39536;52.198;9.920;2024-03-08T11:52:38;100763.31;;;9.45;100.00
13968;BME280;39536;52.198;9.920;2024-03-08T11:55:06;100763.13;;;9.53;100.00
13968;BME280;39536;52.198;9.920;2024-03-08T11:57:33;100750.94;;;9.55;100.00
13968;BME280;39536;52.198;9.920;2024-03-08T12:00:00;100747.50;;;9.53;100.00
13968;BME280;39536;52.198;9.920;2024-03-08T12:02:33;100738.13;;;9.47;100.00
13968;BME280;39536;52.198;9.920;2024-03-08T12:05:02;100744.41;;;9.39;100.00
13968;BME280;39536;52.198;9.920;2024-03-08T12:07:29;100734.09;;;9.34;100.00
13968;BME280;39536;52.198;9.920;2024-03-08T12:10:17;100723.31;;;9.51;100.00
13968;BME280;39536;52.198;9.920;2024-03-08T12:12:46;100722.72;;;9.40;100.00
13968;BME280;39536;52.198;9.920;2024-03-08T12:15:13;100717.72;;;9.32;100.00
13968;BME280;39536;52.198;9.920;2024-03-08T12:17:42;100723.94;;;9.61;100.00
13968;BME280;39536;52.198;9.920;2024-03-08T12:20:14;100716.97;;;9.61;100.00
13968;BME280;39536;52.198;9.920;2024-03-08T12:22:41;100714.72;;;9.82;100.00
13968;BME280;39536;52.198;9.920;2024-03-08T12:25:09;100710.59;;;9.73;100.00
13968;BME280;39536;52.198;9.920;2024-03-08T12:27:37;100707.09;;;9.74;100.00
13968;BME280;39536;52.198;9.920;2024-03-08T12:30:22;100703.47;;;9.81;100.00
13968;BME280;39536;52.198;9.920;2024-03-08T12:32:54;100703.09;;;9.93;100.00
13968;BME280;39536;52.198;9.920;2024-03-08T12:35:24;100689.88;;;9.70;100.00
13968;BME280;39536;52.198;9.920;2024-03-08T12:37:53;100689.13;;;9.65;100.00
13968;BME280;39536;52.198;9.920;2024-03-08T12:40:26;100680.31;;;9.72;100.00
13968;BME280;39536;52.198;9.920;2024-03-08T12:42:54;100676.13;;;9.98;100.00
13968;BME280;39536;52.198;9.920;2024-03-08T12:45:21;100674.41;;;9.97;100.00
13968;BME280;39536;52.198;9.920;2024-03-08T12:47:49;100663.41;;;9.87;100.00
13968;BME280;39536;52.198;9.920;2024-03-08T12:50:17;100667.50;;;9.95;100.00
13968;BME280;39536;52.198;9.920;2024-03-08T12:52:44;100672.03;;;9.89;100.00
13968;BME280;39536;52.198;9.920;2024-03-08T12:55:11;100664.94;;;9.94;100.00